Time;durP1;ratioP1;P1;durP2;ratioP2;P2;SDS_P1;SDS_P2;PMS_P1;PMS_P2;Temp;Humidity;BMP_temperature;BMP_pressure;BME280_temperature;BME280_humidity;BME280_pressure;Samples;Min_cycle;Max_cycle;Signal;HPM_P1;HPM_P2
2021/12/26 00:00:58;;;;;;;1999.90;999.90;;;2.70;99.90;;;;;;4970752;28;20170;-69
2021/12/26 00:03:25;;;;;;;1999.90;999.90;;;2.70;99.90;;;;;;4970718;28;20637;-70
2021/12/26 00:05:52;;;;;;;1999.90;999.90;;;2.70;99.90;;;;;;4970292;28;20204;-69
2021/12/26 00:08:19;;;;;;;1999.90;999.90;;;2.70;99.90;;;;;;4970483;28;20171;-70
2021/12/26 00:10:46;;;;;;;1999.90;999.90;;;2.70;99.90;;;;;;4970608;28;20613;-70
2021/12/26 00:13:12;;;;;;;1999.90;999.90;;;2.70;99.90;;;;;;4970502;28;20286;-69
2021/12/26 00:15:38;;;;;;;1999.90;999.90;;;2.70;99.90;;;;;;4970244;28;20253;-70
2021/12/26 00:18:04;;;;;;;1999.90;999.90;;;2.70;99.90;;;;;;4970420;28;20174;-69
2021/12/26 00:20:30;;;;;;;1999.90;999.90;;;2.60;99.90;;;;;;4970453;28;20228;-69
2021/12/26 00:22:56;;;;;;;1999.90;999.90;;;2.60;99.90;;;;;;4970219;28;20465;-69
2021/12/26 00:25:22;;;;;;;1999.90;999.90;;;2.60;99.90;;;;;;4969955;28;20230;-69
2021/12/26 00:27:47;;;;;;;1999.90;999.90;;;2.60;99.90;;;;;;4970297;28;20221;-70
2021/12/26 00:30:18;;;;;;;1999.90;999.90;;;2.50;99.90;;;;;;4970313;28;20236;-70
2021/12/26 00:32:44;;;;;;;1999.90;999.90;;;2.50;99.90;;;;;;4970186;28;20245;-70
2021/12/26 00:35:13;;;;;;;1999.90;999.90;;;2.50;99.90;;;;;;4969959;28;20273;-69
2021/12/26 00:37:40;;;;;;;1999.90;999.90;;;2.50;99.90;;;;;;4971995;28;20170;-70
2021/12/26 00:40:07;;;;;;;1999.90;999.90;;;2.50;99.90;;;;;;4973737;28;20257;-69
2021/12/26 00:42:33;;;;;;;1999.90;999.90;;;2.40;99.90;;;;;;4973705;28;20241;-70
2021/12/26 00:44:59;;;;;;;1999.90;999.90;;;2.50;99.90;;;;;;4973232;28;20570;-70
2021/12/26 00:47:29;;;;;;;1999.90;999.90;;;2.40;99.90;;;;;;4973557;28;20163;-70
2021/12/26 00:49:56;;;;;;;1999.90;999.90;;;2.30;99.90;;;;;;4973421;28;20664;-69
2021/12/26 00:52:22;;;;;;;1999.90;999.90;;;2.20;99.90;;;;;;4973526;28;20174;-69
2021/12/26 00:54:48;;;;;;;1999.90;999.90;;;2.10;99.90;;;;;;4973075;28;20214;-69
2021/12/26 00:57:14;;;;;;;1999.90;999.90;;;2.10;99.90;;;;;;4973480;28;20418;-69
2021/12/26 00:59:39;;;;;;;1999.90;999.90;;;2.10;99.90;;;;;;4973437;28;20416;-69
2021/12/26 01:02:05;;;;;;;1999.90;999.90;;;2.10;99.90;;;;;;4973457;28;20179;-70
2021/12/26 01:04:31;;;;;;;1999.90;999.90;;;2.00;99.90;;;;;;4972759;28;20667;-69
2021/12/26 01:06:57;;;;;;;1999.90;999.90;;;1.90;99.90;;;;;;4973331;28;20192;-70
2021/12/26 01:09:27;;;;;;;1999.90;999.90;;;2.00;99.90;;;;;;4973186;28;20235;-69
2021/12/26 01:11:56;;;;;;;1999.90;999.90;;;2.00;99.90;;;;;;4973219;28;20178;-69
2021/12/26 01:14:28;;;;;;;1999.90;999.90;;;1.90;99.90;;;;;;4972843;28;20570;-70
2021/12/26 01:17:04;;;;;;;1999.90;999.90;;;1.90;99.90;;;;;;4973208;28;20277;-70
2021/12/26 01:19:42;;;;;;;1999.90;999.90;;;1.80;99.90;;;;;;4973314;28;20266;-70
2021/12/26 01:22:08;;;;;;;1999.90;999.90;;;1.90;99.90;;;;;;4973083;28;20209;-70
2021/12/26 01:24:34;;;;;;;1999.90;999.90;;;1.90;99.90;;;;;;4972721;28;20570;-69
2021/12/26 01:27:00;;;;;;;1999.90;999.90;;;1.90;99.90;;;;;;4972966;28;20174;-70
2021/12/26 01:29:26;;;;;;;1999.90;999.90;;;1.90;99.90;;;;;;4972989;28;20296;-70
2021/12/26 01:31:52;;;;;;;1999.90;999.90;;;1.90;99.90;;;;;;4972814;28;20221;-70
2021/12/26 01:34:17;;;;;;;1999.90;999.90;;;1.80;99.90;;;;;;4972584;28;20424;-69
2021/12/26 01:36:43;;;;;;;1999.90;999.90;;;1.70;99.90;;;;;;4972835;28;20174;-69
2021/12/26 01:39:10;;;;;;;1999.90;999.90;;;1.70;99.90;;;;;;4972869;28;20175;-69
2021/12/26 01:41:40;;;;;;;1999.90;999.90;;;1.70;99.90;;;;;;4972738;28;20205;-69
2021/12/26 01:44:10;;;;;;;1999.90;999.90;;;1.70;99.90;;;;;;4972451;28;20210;-70
2021/12/26 01:46:36;;;;;;;1999.90;999.90;;;1.70;99.90;;;;;;4972602;28;20185;-70
2021/12/26 01:49:15;;;;;;;1999.90;999.90;;;1.70;99.90;;;;;;4971493;28;20170;-69
2021/12/26 01:51:42;;;;;;;1999.90;999.90;;;1.70;99.90;;;;;;4972632;28;20178;-70
2021/12/26 01:54:11;;;;;;;1999.90;999.90;;;1.70;99.90;;;;;;4972140;28;20293;-69
2021/12/26 01:56:38;;;;;;;1999.90;999.90;;;1.70;99.90;;;;;;4972424;28;20182;-70
2021/12/26 01:59:07;;;;;;;1999.90;999.90;;;1.70;99.90;;;;;;4972594;28;20166;-70
2021/12/26 02:01:33;;;;;;;1999.90;999.90;;;1.60;99.90;;;;;;4972504;28;20198;-69
2021/12/26 02:04:00;;;;;;;1999.90;999.90;;;1.60;99.90;;;;;;4972283;28;20194;-69
2021/12/26 02:06:26;;;;;;;1999.90;999.90;;;1.60;99.90;;;;;;4972529;28;20406;-69
2021/12/26 02:08:51;;;;;;;1999.90;999.90;;;1.60;99.90;;;;;;4972358;28;20544;-70
2021/12/26 02:11:17;;;;;;;1999.90;999.90;;;1.60;99.90;;;;;;4972421;28;20253;-70
2021/12/26 02:13:43;;;;;;;1999.90;999.90;;;1.60;99.90;;;;;;4972248;28;20190;-70
2021/12/26 02:16:10;;;;;;;1999.90;999.90;;;1.60;99.90;;;;;;4972235;28;20179;-70
2021/12/26 02:18:37;;;;;;;1999.90;999.90;;;1.70;99.90;;;;;;4972239;28;20171;-69
2021/12/26 02:21:31;;;;;;;1999.90;999.90;;;1.70;99.90;;;;;;4972293;28;20551;-68
2021/12/26 02:24:12;;;;;;;1999.90;999.90;;;1.70;99.90;;;;;;4972293;28;20251;-70
2021/12/26 02:29:23;;;;;;;1999.90;999.90;;;1.80;99.90;;;;;;4972156;28;20209;-70
2021/12/26 02:31:49;;;;;;;1999.90;999.90;;;1.80;99.90;;;;;;4971983;28;20257;-69
2021/12/26 02:34:14;;;;;;;1999.90;999.90;;;1.80;99.90;;;;;;4971723;28;20270;-69
2021/12/26 02:36:40;;;;;;;1999.90;999.90;;;1.80;99.90;;;;;;4971922;28;20173;-70
2021/12/26 02:39:06;;;;;;;1999.90;999.90;;;1.80;99.90;;;;;;4972181;28;20205;-70
2021/12/26 02:41:31;;;;;;;1999.90;999.90;;;1.80;99.90;;;;;;4971915;28;20249;-69
2021/12/26 02:43:58;;;;;;;1999.90;999.90;;;1.80;99.90;;;;;;4971744;28;20254;-69
2021/12/26 02:46:26;;;;;;;1999.90;999.90;;;1.80;99.90;;;;;;4971590;28;20265;-69
2021/12/26 02:48:52;;;;;;;1999.90;999.90;;;1.90;99.90;;;;;;4971876;28;20543;-69
2021/12/26 02:51:18;;;;;;;1999.90;999.90;;;1.90;99.90;;;;;;4971789;28;20196;-69
2021/12/26 02:53:47;;;;;;;1999.90;999.90;;;1.90;99.90;;;;;;4971492;28;20293;-69
2021/12/26 02:56:13;;;;;;;1999.90;999.90;;;2.00;99.90;;;;;;4971463;28;20430;-69
2021/12/26 02:58:38;;;;;;;1999.90;999.90;;;2.00;99.90;;;;;;4971728;28;20182;-70
2021/12/26 03:01:11;;;;;;;1999.90;999.90;;;2.10;99.90;;;;;;4971148;28;20181;-69
2021/12/26 03:03:37;;;;;;;1999.90;999.90;;;2.10;99.90;;;;;;4971530;28;20186;-70
2021/12/26 03:06:09;;;;;;;1999.90;999.90;;;2.10;99.90;;;;;;4971380;28;20228;-69
2021/12/26 03:08:35;;;;;;;1999.90;999.90;;;2.10;99.90;;;;;;4971605;28;20402;-70
2021/12/26 03:11:00;;;;;;;1999.90;999.90;;;2.20;99.90;;;;;;4971513;28;20512;-69
2021/12/26 03:13:27;;;;;;;1999.90;999.90;;;2.20;99.90;;;;;;4971346;28;20269;-69
2021/12/26 03:15:52;;;;;;;1999.90;999.90;;;2.20;99.90;;;;;;4970928;28;20179;-70
2021/12/26 03:18:18;;;;;;;1999.90;999.90;;;2.20;99.90;;;;;;4971369;28;20179;-69
2021/12/26 03:20:47;;;;;;;1999.90;999.90;;;2.30;99.90;;;;;;4971320;28;20193;-69
2021/12/26 03:23:16;;;;;;;1999.90;999.90;;;2.30;99.90;;;;;;4971305;28;20428;-70
2021/12/26 03:25:42;;;;;;;1999.90;999.90;;;2.30;99.90;;;;;;4971019;28;20625;-69
2021/12/26 03:28:08;;;;;;;1999.90;999.90;;;2.40;99.90;;;;;;4971242;28;20182;-69
2021/12/26 03:30:35;;;;;;;1999.90;999.90;;;2.40;99.90;;;;;;4971228;28;20558;-69
2021/12/26 03:33:04;;;;;;;1999.90;999.90;;;2.40;99.90;;;;;;4971201;28;20813;-70
2021/12/26 03:35:30;;;;;;;1999.90;999.90;;;2.40;99.90;;;;;;4970866;28;20179;-69
2021/12/26 03:37:58;;;;;;;1999.90;999.90;;;2.40;99.90;;;;;;4971118;28;20267;-69
2021/12/26 03:40:24;;;;;;;1999.90;999.90;;;2.40;99.90;;;;;;4971031;28;20470;-68
2021/12/26 03:42:52;;;;;;;1999.90;999.90;;;2.40;99.90;;;;;;4970964;28;20213;-69
2021/12/26 03:45:18;;;;;;;1999.90;999.90;;;2.40;99.90;;;;;;4970613;28;20281;-70
2021/12/26 03:47:48;;;;;;;1999.90;999.90;;;2.30;99.90;;;;;;4971266;28;20303;-70
2021/12/26 03:50:15;;;;;;;1999.90;999.90;;;2.30;99.90;;;;;;4970964;28;20195;-70
2021/12/26 03:52:41;;;;;;;1999.90;999.90;;;2.40;99.90;;;;;;4970692;28;20259;-69
2021/12/26 03:55:06;;;;;;;1999.90;999.90;;;2.30;99.90;;;;;;4970646;28;20237;-69
2021/12/26 03:57:32;;;;;;;1999.90;999.90;;;2.30;99.90;;;;;;4970651;28;20188;-69
2021/12/26 03:59:58;;;;;;;1999.90;999.90;;;2.30;99.90;;;;;;4970700;28;20210;-70
2021/12/26 04:02:23;;;;;;;1999.90;999.90;;;2.30;99.90;;;;;;4970790;28;20546;-69
2021/12/26 04:04:49;;;;;;;1999.90;999.90;;;2.40;99.90;;;;;;4970264;28;20214;-69
2021/12/26 04:07:14;;;;;;;1999.90;999.90;;;2.30;99.90;;;;;;4970591;28;20635;-68
2021/12/26 04:09:40;;;;;;;1999.90;999.90;;;2.30;99.90;;;;;;4970530;28;20202;-68
2021/12/26 04:12:07;;;;;;;1999.90;999.90;;;2.30;99.90;;;;;;4984580;23;20226;-68
2021/12/26 04:14:32;;;;;;;1999.90;999.90;;;2.40;99.90;;;;;;4970788;28;20202;-68
2021/12/26 04:16:58;;;;;;;1999.90;999.90;;;2.40;99.90;;;;;;4971062;28;20180;-67
2021/12/26 04:19:23;;;;;;;1999.90;999.90;;;2.40;99.90;;;;;;4971142;28;20182;-68
2021/12/26 04:21:49;;;;;;;1999.90;999.90;;;2.40;99.90;;;;;;4970911;28;20535;-67
2021/12/26 04:24:15;;;;;;;1999.90;999.90;;;2.40;99.90;;;;;;4970645;28;20181;-68
2021/12/26 04:26:40;;;;;;;1999.90;999.90;;;2.40;99.90;;;;;;4970857;28;20175;-68
2021/12/26 04:29:10;;;;;;;1999.90;999.90;;;2.50;99.90;;;;;;4970780;28;20201;-67
2021/12/26 04:31:36;;;;;;;1999.90;999.90;;;2.40;99.90;;;;;;4970714;28;20191;-67
2021/12/26 04:34:03;;;;;;;1999.90;999.90;;;2.50;99.90;;;;;;4970587;28;20189;-67
2021/12/26 04:36:29;;;;;;;1999.90;999.90;;;2.50;99.90;;;;;;4970838;28;20163;-67
2021/12/26 04:38:55;;;;;;;1999.90;999.90;;;2.50;99.90;;;;;;4970459;28;20172;-67
2021/12/26 04:41:20;;;;;;;1999.90;999.90;;;2.50;99.90;;;;;;4970430;28;20273;-67
2021/12/26 04:43:46;;;;;;;1999.90;999.90;;;2.50;99.90;;;;;;4970610;28;20711;-67
2021/12/26 04:46:12;;;;;;;1999.90;999.90;;;2.50;99.90;;;;;;4970276;28;20597;-67
2021/12/26 04:48:41;;;;;;;1999.90;999.90;;;2.40;99.90;;;;;;4970639;28;20174;-67
2021/12/26 04:51:10;;;;;;;1999.90;999.90;;;2.40;99.90;;;;;;4970666;28;20430;-68
2021/12/26 04:53:37;;;;;;;1999.90;999.90;;;2.40;99.90;;;;;;4970553;28;20624;-67
2021/12/26 04:56:03;;;;;;;1999.90;999.90;;;2.50;99.90;;;;;;4970223;28;20175;-67
2021/12/26 04:58:30;;;;;;;1999.90;999.90;;;2.50;99.90;;;;;;4970363;28;20179;-68
2021/12/26 05:00:55;;;;;;;1999.90;999.90;;;2.30;99.90;;;;;;4970447;28;20633;-68
2021/12/26 05:03:21;;;;;;;1999.90;999.90;;;2.40;99.90;;;;;;4970473;28;20207;-67
2021/12/26 05:05:48;;;;;;;1999.90;999.90;;;2.40;99.90;;;;;;4970030;28;20194;-68
2021/12/26 05:08:14;;;;;;;1999.90;999.90;;;2.40;99.90;;;;;;4970159;28;20232;-67
2021/12/26 05:10:40;;;;;;;1999.90;999.90;;;2.30;99.90;;;;;;4970198;28;20167;-68
2021/12/26 05:13:06;;;;;;;1999.90;999.90;;;2.30;99.90;;;;;;4970031;28;20725;-68
2021/12/26 05:15:32;;;;;;;1999.90;999.90;;;2.30;99.90;;;;;;4969926;28;20274;-68
2021/12/26 05:17:58;;;;;;;1999.90;999.90;;;2.30;99.90;;;;;;4970139;28;20497;-68
2021/12/26 05:20:26;;;;;;;1999.90;999.90;;;2.20;99.90;;;;;;4970152;28;20813;-68
2021/12/26 05:22:54;;;;;;;1999.90;999.90;;;2.20;99.90;;;;;;4970432;28;20671;-67
2021/12/26 05:25:20;;;;;;;1999.90;999.90;;;2.20;99.90;;;;;;4973263;28;20234;-68
2021/12/26 05:27:47;;;;;;;1999.90;999.90;;;2.30;99.90;;;;;;4973345;28;20167;-68
2021/12/26 05:30:16;;;;;;;1999.90;999.90;;;2.30;99.90;;;;;;4973375;28;20258;-67
2021/12/26 05:32:43;;;;;;;1999.90;999.90;;;2.40;99.90;;;;;;4973208;28;20187;-67
2021/12/26 05:35:10;;;;;;;1999.90;999.90;;;2.40;99.90;;;;;;4972966;28;20186;-67
2021/12/26 05:37:37;;;;;;;1999.90;999.90;;;2.40;99.90;;;;;;4973116;28;20167;-67
2021/12/26 05:40:04;;;;;;;1999.90;999.90;;;2.40;99.90;;;;;;4971948;28;20218;-67
2021/12/26 05:42:31;;;;;;;1999.90;999.90;;;2.50;99.90;;;;;;4972958;28;20199;-68
2021/12/26 05:44:57;;;;;;;1999.90;999.90;;;2.40;99.90;;;;;;4972648;28;20613;-68
2021/12/26 05:47:23;;;;;;;1999.90;999.90;;;2.30;99.90;;;;;;4972829;28;20186;-67
2021/12/26 05:49:48;;;;;;;1999.90;999.90;;;2.40;99.90;;;;;;4972657;28;20454;-67
2021/12/26 05:52:14;;;;;;;1999.90;999.90;;;2.40;99.90;;;;;;4972481;28;20629;-67
2021/12/26 05:54:40;;;;;;;1999.90;999.90;;;2.40;99.90;;;;;;4972437;28;20471;-67
2021/12/26 05:57:07;;;;;;;1999.90;999.90;;;2.50;99.90;;;;;;4972580;28;20182;-67
2021/12/26 05:59:33;;;;;;;1999.90;999.90;;;2.50;99.90;;;;;;4972556;28;20177;-67
2021/12/26 06:01:59;;;;;;;1999.90;999.90;;;2.50;99.90;;;;;;4972407;28;20236;-67
2021/12/26 06:04:25;;;;;;;1999.90;999.90;;;2.50;99.90;;;;;;4972113;28;20643;-67
2021/12/26 06:06:52;;;;;;;1999.90;999.90;;;2.50;99.90;;;;;;4972370;28;20912;-66
2021/12/26 06:09:17;;;;;;;1999.90;999.90;;;2.50;99.90;;;;;;4972405;28;20163;-67
2021/12/26 06:11:43;;;;;;;1999.90;999.90;;;2.50;99.90;;;;;;4972092;28;20297;-67
2021/12/26 06:14:09;;;;;;;1999.90;999.90;;;2.50;99.90;;;;;;4971981;28;20177;-67
2021/12/26 06:16:34;;;;;;;1999.90;999.90;;;2.50;99.90;;;;;;4972246;28;20635;-67
2021/12/26 06:19:00;;;;;;;1999.90;999.90;;;2.60;99.90;;;;;;4972214;28;20254;-67
2021/12/26 06:21:25;;;;;;;1999.90;999.90;;;2.60;99.90;;;;;;4972124;28;20198;-67
2021/12/26 06:23:52;;;;;;;1999.90;999.90;;;2.60;99.90;;;;;;4972347;28;20707;-67
2021/12/26 06:26:19;;;;;;;1999.90;999.90;;;2.60;99.90;;;;;;4972086;28;20199;-66
2021/12/26 06:28:45;;;;;;;1999.90;999.90;;;2.60;99.90;;;;;;4972219;28;20167;-67
2021/12/26 06:31:11;;;;;;;1999.90;999.90;;;2.60;99.90;;;;;;4972016;28;20194;-66
2021/12/26 06:33:37;;;;;;;1999.90;999.90;;;2.60;99.90;;;;;;4972019;28;20536;-67
2021/12/26 06:36:03;;;;;;;1999.90;999.90;;;2.60;99.90;;;;;;4970837;28;20178;-67
2021/12/26 06:38:31;;;;;;;1999.90;999.90;;;2.50;99.90;;;;;;4972114;28;20265;-66
2021/12/26 06:40:57;;;;;;;1999.90;999.90;;;2.60;99.90;;;;;;4971936;28;20195;-67
2021/12/26 06:43:22;;;;;;;1999.90;999.90;;;2.60;99.90;;;;;;4971822;28;20682;-67
2021/12/26 06:45:48;;;;;;;1999.90;999.90;;;2.60;99.90;;;;;;4971507;28;20762;-66
2021/12/26 06:48:14;;;;;;;1999.90;999.90;;;2.60;99.90;;;;;;4971714;28;20171;-67
2021/12/26 06:50:40;;;;;;;1999.90;999.90;;;2.60;99.90;;;;;;4971705;28;20911;-67
2021/12/26 06:53:05;;;;;;;1999.90;999.90;;;2.60;99.90;;;;;;4971714;28;20632;-67
2021/12/26 06:55:31;;;;;;;1999.90;999.90;;;2.60;99.90;;;;;;4971380;28;20175;-67
2021/12/26 06:57:57;;;;;;;1999.90;999.90;;;2.70;99.90;;;;;;4971660;28;20181;-66
2021/12/26 07:00:23;;;;;;;1999.90;999.90;;;2.70;99.90;;;;;;4971557;28;20647;-67
2021/12/26 07:02:49;;;;;;;1999.90;999.90;;;2.80;99.90;;;;;;4971513;28;20241;-67
2021/12/26 07:05:14;;;;;;;1999.90;999.90;;;2.70;99.90;;;;;;4971052;28;20220;-67
2021/12/26 07:07:41;;;;;;;1999.90;999.90;;;2.70;99.90;;;;;;4971465;28;20171;-67
2021/12/26 07:10:08;;;;;;;1999.90;999.90;;;2.70;99.90;;;;;;4971405;28;20163;-66
2021/12/26 07:12:34;;;;;;;1999.90;999.90;;;2.70;99.90;;;;;;4971280;28;20289;-67
2021/12/26 07:15:00;;;;;;;1999.90;999.90;;;2.70;99.90;;;;;;4971088;28;20621;-66
2021/12/26 07:17:26;;;;;;;1999.90;999.90;;;2.70;99.90;;;;;;4971271;28;20501;-67
2021/12/26 07:19:52;;;;;;;1999.90;999.90;;;2.70;99.90;;;;;;4971249;28;20268;-67
2021/12/26 07:22:17;;;;;;;1999.90;999.90;;;2.70;99.90;;;;;;4971181;28;20194;-66
2021/12/26 07:24:46;;;;;;;1999.90;999.90;;;2.70;99.90;;;;;;4970923;28;20198;-66
2021/12/26 07:27:12;;;;;;;1999.90;999.90;;;2.70;99.90;;;;;;4971120;28;20166;-67
2021/12/26 07:29:38;;;;;;;1999.90;999.90;;;2.70;99.90;;;;;;4971145;28;20177;-67
2021/12/26 07:32:05;;;;;;;1999.90;999.90;;;2.80;99.90;;;;;;4970975;28;20190;-67
2021/12/26 07:34:31;;;;;;;1999.90;999.90;;;2.80;99.90;;;;;;4970862;28;20707;-67
2021/12/26 07:36:56;;;;;;;1999.90;999.90;;;2.90;99.90;;;;;;4971119;28;20260;-67
2021/12/26 07:39:22;;;;;;;1999.90;999.90;;;2.90;99.90;;;;;;4971054;28;20265;-67
2021/12/26 07:41:48;;;;;;;1999.90;999.90;;;2.90;99.90;;;;;;4970976;28;20547;-67
2021/12/26 07:44:13;;;;;;;1999.90;999.90;;;2.90;99.90;;;;;;4970660;28;20170;-67
2021/12/26 07:46:39;;;;;;;1999.90;999.90;;;2.90;99.90;;;;;;4970866;28;20171;-67
2021/12/26 07:49:04;;;;;;;1999.90;999.90;;;2.80;99.90;;;;;;4970900;28;20219;-67
2021/12/26 07:51:30;;;;;;;1999.90;999.90;;;2.90;99.90;;;;;;4970775;28;20201;-67
2021/12/26 07:54:01;;;;;;;1999.90;999.90;;;2.90;99.90;;;;;;4970827;28;20174;-67
2021/12/26 07:56:27;;;;;;;1999.90;999.90;;;2.90;99.90;;;;;;4970940;28;20647;-68
2021/12/26 07:58:52;;;;;;;1999.90;999.90;;;2.90;99.90;;;;;;4970856;28;20197;-67
2021/12/26 08:01:18;;;;;;;1999.90;999.90;;;2.90;99.90;;;;;;4970677;28;20483;-67
2021/12/26 08:03:46;;;;;;;1999.90;999.90;;;2.90;99.90;;;;;;4970763;28;20210;-67
2021/12/26 08:06:16;;;;;;;1999.90;999.90;;;2.90;99.90;;;;;;4970480;28;20263;-67
2021/12/26 08:08:42;;;;;;;1999.90;999.90;;;2.90;99.90;;;;;;4970755;28;20212;-67
2021/12/26 08:11:08;;;;;;;1999.90;999.90;;;2.90;99.90;;;;;;4970454;28;20210;-67
2021/12/26 08:13:34;;;;;;;1999.90;999.90;;;3.00;99.90;;;;;;4970669;28;20659;-67
2021/12/26 08:16:00;;;;;;;1999.90;999.90;;;3.00;99.90;;;;;;4970299;28;20571;-67
2021/12/26 08:18:26;;;;;;;1999.90;999.90;;;3.00;99.90;;;;;;4970593;28;20182;-67
2021/12/26 08:20:52;;;;;;;1999.90;999.90;;;3.00;99.90;;;;;;4970480;28;20174;-66
2021/12/26 08:23:17;;;;;;;1999.90;999.90;;;3.00;99.90;;;;;;4970514;28;20170;-67
2021/12/26 08:25:43;;;;;;;1999.90;999.90;;;3.00;99.90;;;;;;4970068;28;20194;-68
2021/12/26 08:28:08;;;;;;;1999.90;999.90;;;3.10;99.90;;;;;;4970046;28;20202;-67
2021/12/26 08:30:36;;;;;;;1999.90;999.90;;;3.10;99.90;;;;;;4969939;28;20255;-67
2021/12/26 08:33:05;;;;;;;1999.90;999.90;;;3.20;99.90;;;;;;4970293;28;20190;-66
2021/12/26 08:35:32;;;;;;;1999.90;999.90;;;3.20;99.90;;;;;;4969804;28;20175;-66
2021/12/26 08:37:58;;;;;;;1999.90;999.90;;;3.20;99.90;;;;;;4970281;28;20171;-66
2021/12/26 08:40:24;;;;;;;1999.90;999.90;;;3.20;99.90;;;;;;4970218;28;20179;-67
2021/12/26 08:42:50;;;;;;;1999.90;999.90;;;3.20;99.90;;;;;;4970131;28;20437;-67
2021/12/26 08:45:15;;;;;;;1999.90;999.90;;;3.30;99.90;;;;;;4969923;28;20496;-66
2021/12/26 08:47:41;;;;;;;1999.90;999.90;;;3.40;99.90;;;;;;4970101;28;20750;-66
2021/12/26 08:50:09;;;;;;;1999.90;999.90;;;3.30;99.90;;;;;;4961528;28;20273;-67
2021/12/26 08:52:35;;;;;;;1999.90;999.90;;;3.40;99.90;;;;;;4957634;28;20188;-66
2021/12/26 08:55:02;;;;;;;1999.90;999.90;;;3.40;99.90;;;;;;4960259;28;20244;-66
2021/12/26 08:57:27;;;;;;;1999.90;999.90;;;3.40;99.90;;;;;;4957542;28;20185;-66
2021/12/26 08:59:53;;;;;;;1999.90;999.90;;;3.40;99.90;;;;;;4973722;28;20178;-66
2021/12/26 09:02:18;;;;;;;1999.90;999.90;;;3.40;99.90;;;;;;4973415;28;20714;-67
2021/12/26 09:04:44;;;;;;;1999.90;999.90;;;3.40;99.90;;;;;;4973085;28;20194;-67
2021/12/26 09:07:10;;;;;;;1999.90;999.90;;;3.50;99.90;;;;;;4973446;28;20170;-67
2021/12/26 09:09:37;;;;;;;1999.90;999.90;;;3.50;99.90;;;;;;4973238;28;20669;-66
2021/12/26 09:12:03;;;;;;;1999.90;999.90;;;3.60;99.90;;;;;;4973059;28;20714;-67
2021/12/26 09:14:30;;;;;;;1999.90;999.90;;;3.60;99.90;;;;;;4972880;28;20181;-66
2021/12/26 09:16:57;;;;;;;1999.90;999.90;;;3.60;99.90;;;;;;4973398;28;20178;-67
2021/12/26 09:19:23;;;;;;;1999.90;999.90;;;3.60;99.90;;;;;;4973215;28;20159;-67
2021/12/26 09:21:50;;;;;;;1999.90;999.90;;;3.60;99.90;;;;;;4973035;28;20220;-67
2021/12/26 09:24:15;;;;;;;1999.90;999.90;;;3.60;99.90;;;;;;4972656;28;20669;-66
2021/12/26 09:26:41;;;;;;;1999.90;999.90;;;3.60;99.90;;;;;;4973025;28;20174;-66
2021/12/26 09:29:07;;;;;;;1999.90;999.90;;;3.70;99.90;;;;;;4973098;28;20185;-67
2021/12/26 09:31:32;;;;;;;1999.90;999.90;;;3.80;99.90;;;;;;4972990;28;20553;-67
2021/12/26 09:33:58;;;;;;;1999.90;999.90;;;3.80;99.90;;;;;;4972891;28;20174;-66
2021/12/26 09:36:23;;;;;;;1999.90;999.90;;;3.90;99.90;;;;;;4972772;28;20213;-67
2021/12/26 09:38:49;;;;;;;1999.90;999.90;;;4.00;99.90;;;;;;4972884;28;20175;-67
2021/12/26 09:41:15;;;;;;;1999.90;999.90;;;4.00;99.90;;;;;;4972719;28;20277;-66
2021/12/26 09:43:41;;;;;;;1999.90;999.90;;;4.00;99.90;;;;;;4972843;28;20424;-67
2021/12/26 09:46:07;;;;;;;1999.90;999.90;;;4.00;99.90;;;;;;4972485;28;20256;-66
2021/12/26 09:48:32;;;;;;;1999.90;999.90;;;4.10;99.90;;;;;;4972800;28;20644;-67
2021/12/26 09:50:58;;;;;;;1999.90;999.90;;;4.00;99.90;;;;;;4972826;28;20218;-66
2021/12/26 09:53:24;;;;;;;1999.90;999.90;;;4.10;99.90;;;;;;4972697;28;20167;-66
2021/12/26 09:55:50;;;;;;;1999.90;999.90;;;4.00;99.90;;;;;;4972375;28;20182;-67
2021/12/26 09:58:16;;;;;;;1999.90;999.90;;;4.10;99.90;;;;;;4972684;28;20561;-67
2021/12/26 10:00:44;;;;;;;1999.90;999.90;;;4.10;99.90;;;;;;4972534;28;20224;-66
2021/12/26 10:03:30;;;;;;;1999.90;999.90;;;4.10;99.90;;;;;;4972546;28;20248;-67
2021/12/26 10:06:17;;;;;;;1999.90;999.90;;;4.00;99.90;;;;;;4972180;28;20209;-66
2021/12/26 10:08:53;;;;;;;1999.90;999.90;;;4.10;99.90;;;;;;4958951;28;20213;-66
2021/12/26 10:11:20;;;;;;;1999.90;999.90;;;4.10;99.90;;;;;;4969606;28;20683;-67
2021/12/26 10:13:56;;;;;;;1999.90;999.90;;;4.10;99.90;;;;;;4970820;28;20209;-67
2021/12/26 10:16:26;;;;;;;1999.90;999.90;;;4.10;99.90;;;;;;4970220;28;20651;-67
2021/12/26 10:18:53;;;;;;;1999.90;999.90;;;4.10;99.90;;;;;;4970668;28;20186;-66
2021/12/26 10:21:24;;;;;;;1999.90;999.90;;;4.10;99.90;;;;;;4970514;28;20202;-66
2021/12/26 10:23:51;;;;;;;1999.90;999.90;;;4.20;99.90;;;;;;4970487;28;20611;-66
2021/12/26 10:26:19;;;;;;;1999.90;999.90;;;4.30;99.90;;;;;;4970254;28;20200;-66
2021/12/26 10:29:23;;;;;;;1999.90;999.90;;;4.40;99.90;;;;;;4970525;28;20175;-66
2021/12/26 10:32:37;;;;;;;1999.90;999.90;;;4.40;99.90;;;;;;4970623;28;20830;-66
2021/12/26 10:35:17;;;;;;;1999.90;999.90;;;4.50;99.90;;;;;;4971868;28;20182;-67
2021/12/26 10:37:47;;;;;;;1999.90;999.90;;;4.60;99.90;;;;;;4969974;28;20564;-67
2021/12/26 10:40:19;;;;;;;1999.90;999.90;;;4.60;99.90;;;;;;4968303;28;20776;-66
2021/12/26 10:43:05;;;;;;;1999.90;999.90;;;4.60;99.90;;;;;;4970171;28;20194;-67
2021/12/26 10:45:35;;;;;;;1999.90;999.90;;;4.60;99.90;;;;;;4969538;28;20201;-68
2021/12/26 10:48:04;;;;;;;1999.90;999.90;;;4.70;99.90;;;;;;4970112;28;20539;-68
2021/12/26 10:50:31;;;;;;;1999.90;999.90;;;4.70;99.90;;;;;;4970198;28;20210;-68
2021/12/26 10:53:03;;;;;;;1999.90;999.90;;;4.70;99.90;;;;;;4969864;28;20607;-66
2021/12/26 10:55:36;;;;;;;1999.90;999.90;;;4.80;99.90;;;;;;4969986;28;20417;-68
2021/12/26 10:58:11;;;;;;;1999.90;999.90;;;4.80;99.90;;;;;;4970058;28;20436;-67
2021/12/26 11:00:40;;;;;;;1999.90;999.90;;;4.70;99.90;;;;;;4970035;28;20408;-68
2021/12/26 11:03:08;;;;;;;1999.90;999.90;;;4.80;99.90;;;;;;4970445;28;20425;-66
2021/12/26 11:05:40;;;;;;;1999.90;999.90;;;5.00;99.90;;;;;;4969746;28;20676;-66
2021/12/26 11:08:11;;;;;;;1999.90;999.90;;;5.00;99.90;;;;;;4969589;28;20175;-66
2021/12/26 11:10:48;;;;;;;1999.90;999.90;;;5.00;99.90;;;;;;4969871;28;20166;-66
2021/12/26 11:13:46;;;;;;;1999.90;999.90;;;5.10;99.90;;;;;;4969896;28;20420;-67
2021/12/26 11:16:14;;;;;;;1999.90;999.90;;;5.20;99.90;;;;;;4970312;28;20422;-66
2021/12/26 11:18:40;;;;;;;1999.90;999.90;;;5.50;99.90;;;;;;4969773;28;20438;-67
2021/12/26 11:21:13;;;;;;;1999.90;999.90;;;6.00;99.90;;;;;;4969050;28;20492;-66
2021/12/26 11:23:39;;;;;;;1999.90;999.90;;;6.60;99.90;;;;;;4970039;28;20191;-66
2021/12/26 11:26:08;;;;;;;1999.90;999.90;;;7.10;99.90;;;;;;4969465;28;20454;-66
2021/12/26 11:28:40;;;;;;;1999.90;999.90;;;7.40;99.90;;;;;;4969239;28;20408;-66
2021/12/26 11:31:12;;;;;;;1999.90;999.90;;;7.00;99.90;;;;;;4969705;28;20565;-66
2021/12/26 11:33:38;;;;;;;1999.90;999.90;;;6.60;99.90;;;;;;4969686;28;20421;-66
2021/12/26 11:36:09;;;;;;;1999.90;999.90;;;6.30;99.90;;;;;;4968873;28;20410;-66
2021/12/26 11:38:36;;;;;;;1999.90;999.90;;;6.10;99.90;;;;;;4969704;28;20410;-66
2021/12/26 11:41:06;;;;;;;1999.90;999.90;;;6.00;99.90;;;;;;4969528;28;20445;-66
2021/12/26 11:44:11;;;;;;;1999.90;999.90;;;5.80;99.90;;;;;;4968943;28;20406;-67
2021/12/26 11:46:45;;;;;;;1999.90;999.90;;;5.70;99.90;;;;;;4969605;28;20476;-66
2021/12/26 11:49:50;;;;;;;1999.90;999.90;;;5.60;99.90;;;;;;4969297;28;20402;-66
2021/12/26 11:52:46;;;;;;;1999.90;999.90;;;5.60;99.90;;;;;;4969462;28;20436;-66
2021/12/26 11:55:53;;;;;;;1999.90;999.90;;;5.50;99.90;;;;;;4969038;28;20406;-66
2021/12/26 11:58:39;;;;;;;1999.90;999.90;;;5.50;99.90;;;;;;4979406;28;20570;-66
2021/12/26 12:01:12;;;;;;;1999.90;999.90;;;5.50;99.90;;;;;;4969502;28;20957;-66
2021/12/26 12:03:38;;;;;;;1999.90;999.90;;;5.50;99.90;;;;;;4969282;28;20414;-66
2021/12/26 12:06:03;;;;;;;1999.90;999.90;;;5.60;99.90;;;;;;4968354;28;20464;-66
2021/12/26 12:08:33;;;;;;;1999.90;999.90;;;5.50;99.90;;;;;;4969006;28;20185;-66
2021/12/26 12:11:02;;;;;;;1999.90;999.90;;;5.50;99.90;;;;;;4969267;28;20178;-66
2021/12/26 12:13:36;;;;;;;1999.90;999.90;;;5.50;99.90;;;;;;4968601;28;20406;-66
2021/12/26 12:16:11;;;;;;;1999.90;999.90;;;5.50;99.90;;;;;;4968768;28;20397;-66